Terminal Aerodrome Forecast
Issued by NWS

Home | Current Version | Previous Version | Text Only | Print | Product List | Glossary On
Versions: 1 2 3 4 5 6 7 8 9 10 11 12 13 14 15
000
FTUS43 KICT 070228 AAA
TAFCNU
TAF AMD
KCNU 070228Z 0702/0724 33010KT P6SM VCTS SCT015 OVC050CB
      TEMPO 0702/0705 -TSRA BKN015CB
     FM070800 02007KT P6SM VCSH SCT015 OVC040
     FM071500 04007KT P6SM OVC050=

USA.gov is the U.S. government's official web portal to all federal, state and local government web resources and services.